Time;durP1;ratioP1;P1;durP2;ratioP2;P2;SDS_P1;SDS_P2;PMS_P1;PMS_P2;Temp;Humidity;BMP_temperature;BMP_pressure;BME280_temperature;BME280_humidity;BME280_pressure;Samples;Min_cycle;Max_cycle;Signal;HPM_P1;HPM_P2
2022/12/23 00:00:34;;;;;;;49.78;25.38;;;7.50;99.90;;;;;;5117565;28;20036;-62
2022/12/23 00:03:00;;;;;;;33.03;16.67;;;7.40;99.90;;;;;;5108944;28;20377;-61
2022/12/23 00:05:26;;;;;;;39.30;23.20;;;7.40;99.90;;;;;;5117516;28;20469;-62
2022/12/23 00:07:51;;;;;;;46.10;24.95;;;7.40;99.90;;;;;;5117014;28;20048;-62
2022/12/23 00:10:17;;;;;;;53.05;29.58;;;7.30;99.90;;;;;;5117268;28;20050;-62
2022/12/23 00:15:27;;;;;;;57.10;30.65;;;7.30;99.90;;;;;;5109994;28;20048;-62
2022/12/23 00:17:52;;;;;;;65.97;32.40;;;7.30;99.90;;;;;;5096631;28;20131;-62
2022/12/23 00:20:18;;;;;;;51.10;28.17;;;7.40;99.90;;;;;;5096720;28;20040;-62
2022/12/23 00:25:40;;;;;;;59.03;31.10;;;7.40;99.90;;;;;;5096743;28;20043;-62
2022/12/23 00:28:18;;;;;;;56.58;30.33;;;7.20;99.90;;;;;;5096288;28;20047;-62
2022/12/23 00:30:58;;;;;;;55.03;29.27;;;7.40;99.90;;;;;;5096245;28;20129;-62
2022/12/23 00:33:27;;;;;;;49.83;28.25;;;7.40;99.90;;;;;;5096390;28;20036;-63
2022/12/23 00:35:53;;;;;;;57.67;28.25;;;7.30;99.90;;;;;;5078147;28;20481;-62
2022/12/23 00:43:56;;;;;;;60.90;30.33;;;7.30;99.90;;;;;;5095872;28;20476;-62
2022/12/23 00:46:22;;;;;;;48.83;26.83;;;7.40;99.90;;;;;;5096294;28;20083;-62
2022/12/23 00:51:31;;;;;;;61.22;30.13;;;7.30;99.90;;;;;;5095949;28;20546;-62
2022/12/23 00:53:57;;;;;;;64.15;30.35;;;7.40;99.90;;;;;;5096015;28;20040;-63
2022/12/23 00:56:22;;;;;;;64.18;31.85;;;7.20;99.90;;;;;;5095759;28;20035;-62
2022/12/23 00:58:48;;;;;;;66.88;31.75;;;7.30;99.90;;;;;;5096033;28;20040;-62
2022/12/23 01:06:42;;;;;;;61.25;29.67;;;7.30;99.90;;;;;;5095573;28;20040;-62
2022/12/23 01:09:08;;;;;;;63.97;30.23;;;7.20;99.90;;;;;;5095596;28;20432;-62
2022/12/23 01:11:34;;;;;;;68.38;30.77;;;7.40;99.90;;;;;;5095694;28;20538;-62
2022/12/23 01:13:59;;;;;;;61.00;29.75;;;7.40;99.90;;;;;;5095420;28;20466;-62
2022/12/23 01:16:25;;;;;;;64.15;31.02;;;7.20;99.90;;;;;;5095251;28;20101;-62
2022/12/23 01:18:51;;;;;;;77.28;34.25;;;7.40;99.90;;;;;;5095310;28;20063;-62
2022/12/23 01:21:16;;;;;;;60.97;31.70;;;7.40;99.90;;;;;;5095257;28;20051;-62
2022/12/23 01:23:42;;;;;;;63.38;29.42;;;7.30;99.90;;;;;;5095380;28;20044;-63
2022/12/23 01:26:08;;;;;;;59.10;30.35;;;7.40;99.90;;;;;;5095322;28;20040;-63
2022/12/23 01:28:34;;;;;;;64.25;30.83;;;7.30;99.90;;;;;;5095356;28;20078;-63
2022/12/23 01:31:01;;;;;;;60.83;32.22;;;7.50;99.90;;;;;;5095342;28;20036;-62
2022/12/23 01:33:27;;;;;;;68.18;31.50;;;7.30;99.90;;;;;;5095212;28;20036;-62
2022/12/23 01:36:04;;;;;;;62.50;28.05;;;7.40;99.90;;;;;;5094662;28;20474;-62
2022/12/23 01:38:29;;;;;;;48.72;27.15;;;7.40;99.90;;;;;;5095344;28;20047;-62
2022/12/23 01:40:55;;;;;;;63.75;32.95;;;7.30;99.90;;;;;;5095174;28;20040;-62
2022/12/23 01:43:21;;;;;;;61.05;31.92;;;7.30;99.90;;;;;;5094900;28;20040;-62
2022/12/23 01:45:47;;;;;;;67.80;31.90;;;7.20;99.90;;;;;;5094988;28;20047;-62
2022/12/23 01:48:18;;;;;;;68.50;33.17;;;7.40;99.90;;;;;;5095002;28;20032;-62
2022/12/23 01:50:50;;;;;;;75.78;34.03;;;7.30;99.90;;;;;;5094619;28;20474;-62
2022/12/23 01:53:26;;;;;;;74.95;33.85;;;7.40;99.90;;;;;;5094485;28;20397;-63
2022/12/23 01:55:58;;;;;;;63.97;30.65;;;7.40;99.90;;;;;;5076246;28;20398;-62
2022/12/23 01:58:33;;;;;;;71.32;33.58;;;7.20;99.90;;;;;;5094824;28;20036;-62
2022/12/23 02:03:46;;;;;;;79.40;34.85;;;7.40;99.90;;;;;;5094656;28;20385;-62
2022/12/23 02:09:16;;;;;;;72.43;33.03;;;7.20;99.90;;;;;;5094375;28;20048;-62
2022/12/23 02:12:09;;;;;;;65.72;32.47;;;7.20;99.90;;;;;;5076301;28;20498;-62
2022/12/23 02:18:22;;;;;;;68.53;31.35;;;7.40;99.90;;;;;;5093915;28;20072;-63
2022/12/23 02:21:05;;;;;;;68.63;32.58;;;7.20;99.90;;;;;;4992358;28;20042;-62
2022/12/23 02:24:01;;;;;;;63.75;30.40;;;7.20;99.90;;;;;;4992476;28;20050;-63
2022/12/23 02:26:59;;;;;;;62.58;30.20;;;7.40;99.90;;;;;;4992501;28;20046;-62
2022/12/23 02:30:05;;;;;;;71.38;30.67;;;7.30;99.90;;;;;;4976402;28;20046;-62
2022/12/23 02:33:10;;;;;;;58.10;28.05;;;7.30;99.90;;;;;;4992148;28;20061;-63
2022/12/23 02:35:59;;;;;;;62.47;29.48;;;7.30;99.90;;;;;;4992246;28;20053;-62
2022/12/23 02:38:39;;;;;;;60.10;29.10;;;7.30;99.90;;;;;;4992209;28;20389;-63
2022/12/23 02:41:35;;;;;;;46.80;25.58;;;7.40;99.90;;;;;;4992261;28;20473;-62
2022/12/23 02:44:15;;;;;;;64.47;27.52;;;7.40;99.90;;;;;;4992123;28;20080;-62
2022/12/23 02:46:46;;;;;;;44.03;21.52;;;7.30;99.90;;;;;;4991929;28;20116;-62
2022/12/23 02:49:13;;;;;;;44.15;22.52;;;7.50;99.90;;;;;;4991872;28;20077;-62
2022/12/23 02:51:47;;;;;;;56.65;28.35;;;7.40;99.90;;;;;;4975548;28;20056;-62
2022/12/23 02:54:19;;;;;;;53.60;25.85;;;7.40;99.90;;;;;;4992096;28;20042;-63
2022/12/23 02:56:49;;;;;;;58.42;27.95;;;7.30;99.90;;;;;;5023200;28;20052;-62
2022/12/23 02:59:20;;;;;;;65.47;29.50;;;7.40;99.90;;;;;;5093726;28;20071;-62
2022/12/23 03:01:47;;;;;;;59.60;28.02;;;7.50;99.90;;;;;;5075046;28;20071;-62
2022/12/23 03:04:14;;;;;;;65.30;30.60;;;7.30;99.90;;;;;;5093600;28;20051;-63
2022/12/23 03:06:43;;;;;;;62.17;29.25;;;7.30;99.90;;;;;;5093453;28;20036;-62
2022/12/23 03:09:12;;;;;;;;;;;7.20;99.90;;;;;;5093751;28;20054;-63
2022/12/23 03:11:49;;;;;;;71.90;29.10;;;7.40;99.90;;;;;;5093500;28;19995;-62
2022/12/23 03:14:31;;;;;;;64.18;28.92;;;7.40;99.90;;;;;;5093226;28;20036;-62
2022/12/23 03:17:13;;;;;;;62.92;29.70;;;7.30;99.90;;;;;;5086854;28;20498;-62
2022/12/23 03:20:02;;;;;;;61.58;27.75;;;7.20;99.90;;;;;;5093094;28;20071;-62
2022/12/23 03:22:36;;;;;;;59.03;28.15;;;7.40;99.90;;;;;;5093311;28;20039;-62
2022/12/23 03:25:08;;;;;;;64.85;27.52;;;7.40;99.90;;;;;;5093160;28;20506;-62
2022/12/23 03:27:37;;;;;;;69.45;28.75;;;7.30;99.90;;;;;;5093111;28;20040;-62
2022/12/23 03:30:06;;;;;;;70.85;28.73;;;7.50;99.90;;;;;;5093089;28;20051;-62
2022/12/23 03:32:37;;;;;;;64.18;28.33;;;7.30;99.90;;;;;;5093029;28;20119;-63
2022/12/23 03:35:06;;;;;;;76.47;29.15;;;7.30;99.90;;;;;;5092762;28;20477;-62
2022/12/23 03:37:35;;;;;;;60.70;27.42;;;7.30;99.90;;;;;;5093139;28;20040;-63
2022/12/23 03:40:12;;;;;;;62.08;27.17;;;7.30;99.90;;;;;;5092856;28;20115;-62
2022/12/23 03:42:40;;;;;;;65.18;27.60;;;7.30;99.90;;;;;;5093022;28;20040;-63
2022/12/23 03:45:17;;;;;;;66.72;28.17;;;7.50;99.90;;;;;;5092887;28;20129;-62
2022/12/23 03:47:51;;;;;;;69.57;29.33;;;7.30;99.90;;;;;;5093045;28;20040;-62
2022/12/23 03:50:19;;;;;;;68.63;29.50;;;7.30;99.90;;;;;;5092684;28;20115;-61
2022/12/23 03:52:56;;;;;;;61.60;28.80;;;7.50;99.90;;;;;;5092635;28;20051;-63
2022/12/23 03:55:29;;;;;;;71.53;30.63;;;7.40;99.90;;;;;;5074542;28;20071;-62
2022/12/23 03:58:16;;;;;;;70.80;30.50;;;7.40;99.90;;;;;;5074538;28;20177;-62
2022/12/23 04:00:56;;;;;;;68.90;29.48;;;7.40;99.90;;;;;;5057467;28;20036;-63
2022/12/23 04:03:32;;;;;;;74.93;29.55;;;7.30;99.90;;;;;;5092641;28;20043;-63
2022/12/23 04:06:01;;;;;;;69.05;30.63;;;7.40;99.90;;;;;;5092823;28;20040;-62
2022/12/23 04:08:32;;;;;;;66.80;28.38;;;7.30;99.90;;;;;;5092871;28;20035;-63
2022/12/23 04:10:59;;;;;;;63.38;29.27;;;7.20;99.90;;;;;;5092487;28;20592;-62
2022/12/23 04:13:26;;;;;;;60.10;26.73;;;7.30;99.90;;;;;;5092740;28;20039;-62
2022/12/23 04:15:53;;;;;;;61.75;27.05;;;7.40;99.90;;;;;;5108621;28;20134;-63
2022/12/23 04:18:18;;;;;;;60.05;26.92;;;7.20;99.90;;;;;;5133776;28;20080;-62
2022/12/23 04:20:44;;;;;;;54.95;24.85;;;7.30;99.90;;;;;;5133228;28;20043;-62
2022/12/23 04:23:10;;;;;;;56.40;26.98;;;7.10;99.90;;;;;;5133203;28;20043;-62
2022/12/23 04:25:36;;;;;;;59.78;27.38;;;7.20;99.90;;;;;;5133731;28;20125;-62
2022/12/23 04:28:01;;;;;;;64.50;26.25;;;7.30;99.90;;;;;;5133741;28;20102;-62
2022/12/23 04:30:27;;;;;;;64.28;26.45;;;7.30;99.90;;;;;;5133316;28;20039;-62
2022/12/23 04:32:52;;;;;;;73.43;29.27;;;7.20;99.90;;;;;;5133335;28;20047;-62
2022/12/23 04:35:18;;;;;;;57.83;25.30;;;7.10;99.90;;;;;;5133470;28;20035;-62
2022/12/23 04:37:44;;;;;;;54.25;25.73;;;7.10;99.90;;;;;;5133502;28;20031;-62
2022/12/23 04:40:09;;;;;;;60.47;26.63;;;7.20;99.90;;;;;;5134100;27;20537;-62
2022/12/23 04:42:35;;;;;;;59.92;25.83;;;7.20;99.90;;;;;;5137342;27;20099;-62
2022/12/23 04:45:01;;;;;;;54.90;25.58;;;7.20;99.90;;;;;;5137277;27;20043;-62
2022/12/23 04:47:27;;;;;;;49.38;24.00;;;7.10;99.90;;;;;;5137335;27;20393;-62
2022/12/23 04:49:53;;;;;;;63.20;25.90;;;7.10;99.90;;;;;;5137193;27;20042;-63
2022/12/23 04:52:18;;;;;;;61.30;27.88;;;7.30;99.90;;;;;;5137142;27;20035;-62
2022/12/23 04:54:44;;;;;;;60.65;27.42;;;7.20;99.90;;;;;;5136652;27;20039;-62
2022/12/23 04:57:09;;;;;;;65.80;28.15;;;7.20;99.90;;;;;;5136626;27;20366;-63
2022/12/23 04:59:35;;;;;;;60.30;27.95;;;7.30;99.90;;;;;;5136980;27;20039;-62
2022/12/23 05:02:01;;;;;;;60.50;26.48;;;7.20;99.90;;;;;;5136765;27;20118;-62
2022/12/23 05:04:26;;;;;;;66.97;28.13;;;7.30;99.90;;;;;;5136987;27;20504;-62
2022/12/23 05:06:52;;;;;;;60.95;27.15;;;7.20;99.90;;;;;;5136363;27;20039;-62
2022/12/23 05:09:18;;;;;;;78.05;30.08;;;7.10;99.90;;;;;;5136631;27;20035;-62
2022/12/23 05:11:43;;;;;;;68.18;28.08;;;7.10;99.90;;;;;;5136519;27;20043;-63
2022/12/23 05:14:10;;;;;;;61.90;27.75;;;7.10;99.90;;;;;;5136537;27;20047;-62
2022/12/23 05:16:35;;;;;;;73.15;28.75;;;7.10;99.90;;;;;;5136290;27;20105;-63
2022/12/23 05:19:01;;;;;;;62.70;27.33;;;7.20;99.90;;;;;;5136359;27;20469;-62
2022/12/23 05:21:27;;;;;;;56.55;25.70;;;7.20;99.90;;;;;;5135992;27;20041;-62
2022/12/23 05:23:52;;;;;;;64.30;27.80;;;7.20;99.90;;;;;;5136513;27;20039;-62
2022/12/23 05:26:18;;;;;;;52.25;25.88;;;7.00;99.90;;;;;;5136597;27;20050;-62
2022/12/23 05:28:44;;;;;;;57.45;25.58;;;6.90;99.90;;;;;;5136340;27;20039;-62
2022/12/23 05:31:11;;;;;;;73.78;28.38;;;7.20;99.90;;;;;;5136407;27;20047;-62
2022/12/23 05:33:37;;;;;;;62.95;27.40;;;7.10;99.90;;;;;;5136004;27;20039;-62
2022/12/23 05:36:03;;;;;;;73.90;29.52;;;7.10;99.90;;;;;;5117447;27;20035;-62
2022/12/23 05:38:29;;;;;;;69.00;28.48;;;6.90;99.90;;;;;;5136258;27;20385;-62
2022/12/23 05:40:55;;;;;;;52.22;23.20;;;7.10;99.90;;;;;;5136054;27;20039;-62
2022/12/23 05:43:21;;;;;;;53.85;24.98;;;7.00;99.90;;;;;;5135977;27;20619;-62
2022/12/23 05:45:48;;;;;;;49.78;21.85;;;6.90;99.90;;;;;;5100436;27;20561;-62
2022/12/23 05:48:13;;;;;;;47.10;21.92;;;6.90;99.90;;;;;;5135874;27;20066;-62
2022/12/23 05:50:39;;;;;;;64.97;26.63;;;6.80;99.90;;;;;;5135958;27;20127;-62
2022/12/23 05:53:05;;;;;;;72.55;28.17;;;6.80;99.90;;;;;;5134934;27;20046;-63
2022/12/23 05:55:31;;;;;;;65.97;26.77;;;6.80;99.90;;;;;;5135530;27;20814;-62
2022/12/23 05:57:57;;;;;;;72.25;27.50;;;7.00;99.90;;;;;;5135960;27;20039;-62
2022/12/23 06:00:23;;;;;;;62.72;24.88;;;6.80;99.90;;;;;;5135681;27;20111;-62
2022/12/23 06:02:48;;;;;;;61.28;25.40;;;7.00;99.90;;;;;;5135316;27;20059;-62
2022/12/23 06:05:14;;;;;;;58.33;25.02;;;6.70;99.90;;;;;;5135871;27;20039;-62
2022/12/23 06:07:40;;;;;;;50.53;23.85;;;6.90;99.90;;;;;;5135647;27;20137;-62
2022/12/23 06:10:07;;;;;;;52.58;23.23;;;6.80;99.90;;;;;;5135643;27;20045;-62
2022/12/23 06:12:34;;;;;;;56.05;23.67;;;6.80;99.90;;;;;;5116659;27;20444;-62
2022/12/23 06:14:59;;;;;;;44.90;21.58;;;6.80;99.90;;;;;;5135103;27;20049;-63
2022/12/23 06:17:26;;;;;;;50.78;23.13;;;6.70;99.90;;;;;;5134975;27;20067;-62
2022/12/23 06:19:52;;;;;;;44.13;20.98;;;6.80;99.90;;;;;;5135229;27;20489;-62
2022/12/23 06:22:20;;;;;;;30.05;15.93;;;6.70;99.90;;;;;;5135164;27;20122;-62
2022/12/23 06:24:46;;;;;;;35.63;18.37;;;6.70;99.90;;;;;;5134976;27;20046;-62
2022/12/23 06:27:12;;;;;;;34.33;17.90;;;6.60;99.90;;;;;;5135216;27;20031;-63
2022/12/23 06:29:38;;;;;;;36.00;17.63;;;6.60;99.90;;;;;;5116603;27;20374;-62
2022/12/23 06:32:03;;;;;;;35.95;18.50;;;6.70;99.90;;;;;;5135081;27;20043;-63
2022/12/23 06:34:30;;;;;;;34.45;18.33;;;6.50;99.90;;;;;;5134868;27;20088;-62
2022/12/23 06:36:56;;;;;;;35.38;18.73;;;6.50;99.90;;;;;;5134959;27;20047;-62
2022/12/23 06:39:21;;;;;;;50.15;19.92;;;6.70;99.90;;;;;;5135002;27;20035;-62
2022/12/23 06:41:47;;;;;;;42.65;19.95;;;6.70;99.90;;;;;;5134705;27;20031;-62
2022/12/23 06:44:13;;;;;;;50.08;18.38;;;6.70;99.90;;;;;;5134945;27;20039;-62
2022/12/23 06:46:38;;;;;;;55.45;18.75;;;6.60;99.90;;;;;;5134844;27;20050;-62
2022/12/23 06:49:04;;;;;;;40.45;19.08;;;6.80;99.90;;;;;;5134892;27;20039;-62
2022/12/23 06:51:30;;;;;;;45.70;19.90;;;6.80;99.90;;;;;;5134664;27;20047;-63
2022/12/23 06:53:58;;;;;;;45.22;19.77;;;6.70;99.90;;;;;;5134522;27;20047;-63
2022/12/23 06:56:24;;;;;;;40.25;18.20;;;6.70;99.90;;;;;;5134618;27;20046;-61
2022/12/23 06:58:51;;;;;;;43.25;18.42;;;6.80;99.90;;;;;;5134747;27;20039;-62
2022/12/23 07:01:17;;;;;;;32.63;16.10;;;6.70;99.90;;;;;;5115328;27;20043;-62
2022/12/23 07:03:43;;;;;;;36.10;16.35;;;6.70;99.90;;;;;;5134116;27;20054;-63
2022/12/23 07:06:09;;;;;;;35.83;17.55;;;6.70;99.90;;;;;;5134282;27;20117;-62
2022/12/23 07:08:35;;;;;;;39.58;16.40;;;6.80;99.90;;;;;;5134442;27;20039;-62
2022/12/23 07:11:04;;;;;;;37.47;17.73;;;6.80;99.90;;;;;;5133449;27;20091;-62
2022/12/23 07:13:31;;;;;;;40.28;18.65;;;6.70;99.90;;;;;;5134199;27;20039;-63
2022/12/23 07:15:58;;;;;;;35.88;16.30;;;6.80;99.90;;;;;;5133995;27;20126;-63
2022/12/23 07:18:24;;;;;;;39.88;16.85;;;6.80;99.90;;;;;;5134068;27;20031;-62
2022/12/23 07:20:51;;;;;;;47.75;19.77;;;6.80;99.90;;;;;;5134070;27;20031;-62
2022/12/23 07:23:17;;;;;;;45.33;21.02;;;6.70;99.90;;;;;;5134224;27;20031;-62
2022/12/23 07:25:43;;;;;;;50.13;20.33;;;6.80;99.90;;;;;;5133837;27;20562;-62
2022/12/23 07:28:08;;;;;;;52.42;20.42;;;6.70;99.90;;;;;;5133867;27;20053;-63
2022/12/23 07:30:35;;;;;;;54.35;20.50;;;6.70;99.90;;;;;;5134290;27;20034;-62
2022/12/23 07:33:00;;;;;;;54.72;21.10;;;6.90;99.90;;;;;;5115669;27;20039;-62
2022/12/23 07:35:26;;;;;;;45.85;19.77;;;6.70;99.90;;;;;;5133659;27;20035;-62
2022/12/23 07:37:54;;;;;;;50.38;20.25;;;6.80;99.90;;;;;;5133632;27;20141;-62
2022/12/23 07:40:21;;;;;;;45.92;18.88;;;6.80;99.90;;;;;;5133424;27;20038;-62
2022/12/23 07:42:48;;;;;;;46.08;18.95;;;6.70;99.90;;;;;;5133470;27;20043;-62
2022/12/23 07:45:15;;;;;;;49.80;19.65;;;6.60;99.90;;;;;;5133668;27;20043;-62
2022/12/23 07:47:41;;;;;;;54.90;20.88;;;6.60;99.90;;;;;;5115039;27;20069;-62
2022/12/23 07:50:07;;;;;;;49.53;21.20;;;6.70;99.90;;;;;;5133400;27;20091;-62
2022/12/23 07:52:33;;;;;;;50.45;20.60;;;6.70;99.90;;;;;;5133318;28;20039;-62
2022/12/23 07:54:59;;;;;;;48.53;20.55;;;6.60;99.90;;;;;;5133426;28;20031;-62
2022/12/23 07:57:24;;;;;;;50.85;20.55;;;6.80;99.90;;;;;;5133084;28;20031;-62
2022/12/23 07:59:50;;;;;;;43.40;20.05;;;6.70;99.90;;;;;;5133175;28;20049;-62
2022/12/23 08:02:16;;;;;;;49.97;21.17;;;6.90;99.90;;;;;;5132935;28;20031;-62
2022/12/23 08:04:41;;;;;;;46.95;19.65;;;6.70;99.90;;;;;;5133267;28;20134;-62
2022/12/23 08:07:07;;;;;;;44.88;20.20;;;6.80;99.90;;;;;;5133132;28;20581;-63
2022/12/23 08:09:32;;;;;;;48.55;20.52;;;6.80;99.90;;;;;;5132963;28;20027;-62
2022/12/23 08:11:58;;;;;;;46.53;19.52;;;6.80;99.90;;;;;;5132316;28;20052;-63
2022/12/23 08:14:24;;;;;;;40.15;18.95;;;6.90;99.90;;;;;;5132400;27;20044;-62
2022/12/23 08:16:49;;;;;;;41.13;17.55;;;6.70;99.90;;;;;;5136444;27;20123;-62
2022/12/23 08:19:15;;;;;;;38.35;18.33;;;6.90;99.90;;;;;;5137336;27;20039;-62
2022/12/23 08:21:41;;;;;;;38.88;18.08;;;6.80;99.90;;;;;;5137299;27;20067;-62
2022/12/23 08:24:06;;;;;;;43.45;17.25;;;6.90;99.90;;;;;;5137125;27;20035;-63
2022/12/23 08:26:32;;;;;;;40.03;19.10;;;6.70;99.90;;;;;;5137212;27;20039;-62
2022/12/23 08:28:59;;;;;;;38.55;18.20;;;6.70;99.90;;;;;;5137008;27;20039;-62
2022/12/23 08:31:32;;;;;;;35.72;17.10;;;6.80;99.90;;;;;;5136663;27;20046;-62
2022/12/23 08:33:59;;;;;;;45.13;19.10;;;6.80;99.90;;;;;;5136696;27;20122;-63
2022/12/23 08:36:28;;;;;;;37.20;17.73;;;6.80;99.90;;;;;;5136566;27;20542;-63
2022/12/23 08:38:55;;;;;;;40.05;18.63;;;6.80;99.90;;;;;;5136767;27;20426;-62
2022/12/23 08:41:25;;;;;;;34.58;16.17;;;6.70;99.90;;;;;;5136418;27;20043;-62
2022/12/23 08:43:51;;;;;;;26.30;13.90;;;6.90;99.90;;;;;;5118209;27;20075;-62
2022/12/23 08:46:17;;;;;;;32.35;16.70;;;6.80;99.90;;;;;;5136796;27;20031;-62
2022/12/23 08:48:42;;;;;;;50.13;21.17;;;6.90;99.90;;;;;;5136816;27;20542;-62
2022/12/23 08:51:11;;;;;;;43.85;20.55;;;7.00;99.90;;;;;;5136831;27;20075;-62
2022/12/23 08:53:38;;;;;;;35.58;18.20;;;7.10;99.90;;;;;;5136570;27;20122;-62
2022/12/23 08:56:07;;;;;;;45.25;19.33;;;7.10;99.90;;;;;;5136479;27;20481;-62
2022/12/23 08:58:37;;;;;;;40.58;20.10;;;7.20;99.90;;;;;;5136322;27;20046;-62
2022/12/23 09:01:04;;;;;;;36.72;18.67;;;7.00;99.90;;;;;;5136462;27;20035;-63
2022/12/23 09:03:30;;;;;;;37.28;17.40;;;7.10;99.90;;;;;;5136161;27;20481;-62
2022/12/23 09:05:56;;;;;;;39.17;17.02;;;7.00;99.90;;;;;;5136784;27;20049;-62
2022/12/23 09:08:22;;;;;;;32.85;15.63;;;7.00;99.90;;;;;;5136473;27;20042;-61
2022/12/23 09:10:47;;;;;;;26.10;14.65;;;6.90;99.90;;;;;;5136251;27;20042;-62
2022/12/23 09:13:13;;;;;;;27.25;14.63;;;7.00;99.90;;;;;;5135965;27;20075;-63
2022/12/23 09:15:43;;;;;;;34.10;14.95;;;6.90;99.90;;;;;;5135949;27;20051;-62
2022/12/23 09:18:10;;;;;;;27.25;15.23;;;6.90;99.90;;;;;;5136400;27;20054;-62
2022/12/23 09:20:36;;;;;;;48.05;17.77;;;6.90;99.90;;;;;;5135923;27;20046;-62
2022/12/23 09:23:03;;;;;;;40.13;17.35;;;7.00;99.90;;;;;;5117686;27;20532;-62
2022/12/23 09:25:29;;;;;;;86.78;21.30;;;7.00;99.90;;;;;;5135986;27;20042;-62
2022/12/23 09:27:55;;;;;;;48.10;18.75;;;6.80;99.90;;;;;;5135976;27;20388;-62
2022/12/23 09:30:20;;;;;;;42.15;16.65;;;7.00;99.90;;;;;;5135907;27;20418;-63
2022/12/23 09:32:46;;;;;;;67.43;18.77;;;6.90;99.90;;;;;;5136006;27;20031;-63
2022/12/23 09:35:12;;;;;;;95.00;21.83;;;7.00;99.90;;;;;;5136008;27;20388;-61
2022/12/23 09:37:37;;;;;;;46.83;17.98;;;7.00;99.90;;;;;;5135707;27;20377;-62
2022/12/23 09:40:04;;;;;;;64.22;19.38;;;7.10;99.90;;;;;;5135772;27;20369;-63
2022/12/23 09:42:54;;;;;;;91.88;20.27;;;7.00;99.90;;;;;;5135734;27;20035;-63
2022/12/23 09:45:43;;;;;;;41.25;17.23;;;7.00;99.90;;;;;;5135835;27;20380;-62
2022/12/23 09:48:16;;;;;;;65.25;20.33;;;7.00;99.90;;;;;;5135703;27;20042;-62
2022/12/23 09:50:44;;;;;;;50.55;17.33;;;7.10;99.90;;;;;;5135670;27;20110;-62
2022/12/23 09:53:18;;;;;;;46.67;17.25;;;7.20;99.90;;;;;;5135387;27;20110;-62
2022/12/23 09:56:03;;;;;;;77.05;19.50;;;7.20;99.90;;;;;;5135274;27;20105;-62
2022/12/23 09:58:47;;;;;;;61.15;17.90;;;7.10;99.90;;;;;;5135167;27;20046;-62
2022/12/23 10:01:23;;;;;;;87.63;17.33;;;7.10;99.90;;;;;;5135328;27;20084;-63
2022/12/23 10:04:10;;;;;;;55.15;15.57;;;7.20;99.90;;;;;;5135151;27;20031;-62
2022/12/23 10:06:38;;;;;;;57.50;17.15;;;7.20;99.90;;;;;;5135285;27;20047;-63
2022/12/23 10:09:08;;;;;;;39.17;16.73;;;7.30;99.90;;;;;;5135276;27;20039;-63
2022/12/23 10:11:38;;;;;;;77.40;17.33;;;7.20;99.90;;;;;;5134964;27;20046;-63
2022/12/23 10:14:21;;;;;;;32.63;14.88;;;7.20;99.90;;;;;;5135015;27;20039;-63
2022/12/23 10:17:14;;;;;;;28.77;14.20;;;7.30;99.90;;;;;;5134833;27;20062;-63
2022/12/23 10:19:46;;;;;;;118.45;19.30;;;7.30;99.90;;;;;;5135324;27;20044;-63
2022/12/23 10:22:47;;;;;;;64.00;16.80;;;7.40;99.90;;;;;;5116158;27;20050;-63
2022/12/23 10:25:27;;;;;;;41.03;14.77;;;7.30;99.90;;;;;;5015330;28;20048;-63
2022/12/23 10:27:53;;;;;;;80.20;16.55;;;7.20;99.90;;;;;;5031418;28;20512;-63
2022/12/23 10:30:21;;;;;;;39.88;13.95;;;7.20;99.90;;;;;;5031558;28;20045;-63
2022/12/23 10:33:11;;;;;;;31.13;13.43;;;7.40;99.90;;;;;;5031259;28;20108;-63
2022/12/23 10:35:45;;;;;;;28.50;13.80;;;7.20;99.90;;;;;;5031557;28;20589;-63
2022/12/23 10:38:20;;;;;;;42.08;14.07;;;7.40;99.90;;;;;;5030754;28;20061;-63
2022/12/23 10:41:22;;;;;;;41.63;16.10;;;7.40;99.90;;;;;;5031179;28;20053;-63
2022/12/23 10:44:39;;;;;;;43.58;14.75;;;7.40;99.90;;;;;;5031127;28;20045;-63
2022/12/23 10:47:27;;;;;;;64.60;15.70;;;7.20;99.90;;;;;;4953059;29;20064;-63
2022/12/23 10:50:21;;;;;;;38.20;13.95;;;7.30;99.90;;;;;;4877282;29;20064;-62
2022/12/23 10:52:48;;;;;;;25.75;13.77;;;7.20;99.90;;;;;;4877175;29;20057;-63
2022/12/23 10:55:34;;;;;;;21.10;13.02;;;7.40;99.90;;;;;;4877196;29;20048;-63
2022/12/23 10:58:13;;;;;;;28.00;13.75;;;7.40;99.90;;;;;;4876898;29;20084;-63
2022/12/23 11:00:43;;;;;;;27.30;13.68;;;7.30;99.90;;;;;;4936584;29;20051;-63
2022/12/23 11:03:15;;;;;;;26.88;14.35;;;7.50;99.90;;;;;;4952526;29;20080;-63
2022/12/23 11:05:42;;;;;;;27.80;13.45;;;7.40;99.90;;;;;;4936680;29;20547;-63
2022/12/23 11:08:09;;;;;;;22.38;12.30;;;7.30;99.90;;;;;;4952673;29;20577;-62
2022/12/23 11:10:35;;;;;;;22.13;13.27;;;7.30;99.90;;;;;;4952095;29;20102;-62
2022/12/23 11:13:00;;;;;;;25.48;14.15;;;7.30;99.90;;;;;;4952236;29;20043;-62
2022/12/23 11:15:39;;;;;;;36.50;14.45;;;7.50;99.90;;;;;;4951511;28;20532;-63
2022/12/23 11:18:11;;;;;;;53.20;16.35;;;7.50;99.90;;;;;;4952630;29;20043;-63
2022/12/23 11:20:38;;;;;;;75.53;17.65;;;7.40;99.90;;;;;;4952505;29;20074;-63
2022/12/23 11:23:05;;;;;;;140.75;20.33;;;7.50;99.90;;;;;;5004131;28;20049;-63
2022/12/23 11:25:42;;;;;;;139.40;20.15;;;7.40;99.90;;;;;;5030476;28;20045;-63
2022/12/23 11:28:13;;;;;;;94.10;16.52;;;7.40;99.90;;;;;;5130841;27;20051;-63
2022/12/23 11:31:10;;;;;;;62.00;16.73;;;7.40;99.90;;;;;;5133334;27;20035;-63
2022/12/23 11:33:54;;;;;;;50.83;14.32;;;7.30;99.90;;;;;;5033427;28;20139;-63
2022/12/23 11:36:28;;;;;;;24.52;13.00;;;7.20;99.90;;;;;;5050170;28;20033;-63
2022/12/23 11:39:08;;;;;;;25.25;13.35;;;7.40;99.90;;;;;;5050259;28;20049;-63
2022/12/23 11:41:41;;;;;;;23.48;13.55;;;7.30;99.90;;;;;;5033264;28;20622;-63
2022/12/23 11:44:30;;;;;;;24.90;13.15;;;7.30;99.90;;;;;;5050210;28;20075;-63
2022/12/23 11:46:56;;;;;;;22.08;12.70;;;7.20;99.90;;;;;;5050183;28;20045;-63
2022/12/23 11:49:30;;;;;;;19.00;12.48;;;7.30;99.90;;;;;;5049153;28;20449;-63
2022/12/23 11:52:09;;;;;;;19.90;12.48;;;7.50;99.90;;;;;;5049681;28;20056;-63
2022/12/23 11:54:35;;;;;;;23.93;13.10;;;7.50;99.90;;;;;;5033243;28;20489;-63
2022/12/23 11:57:06;;;;;;;22.15;13.38;;;7.40;99.90;;;;;;5049534;28;20084;-63
2022/12/23 11:59:44;;;;;;;24.60;13.57;;;7.30;99.90;;;;;;5049870;28;20913;-63
2022/12/23 12:02:15;;;;;;;28.20;15.07;;;7.30;99.90;;;;;;5049488;28;20466;-63
2022/12/23 12:04:41;;;;;;;26.05;14.27;;;7.40;99.90;;;;;;5033024;28;20049;-64
2022/12/23 12:07:12;;;;;;;30.80;14.57;;;7.50;99.90;;;;;;5049746;28;20128;-63
2022/12/23 12:09:40;;;;;;;28.40;14.40;;;7.50;99.90;;;;;;5080626;28;20079;-64
2022/12/23 12:12:14;;;;;;;29.15;14.80;;;7.30;99.90;;;;;;5132699;28;20392;-63
2022/12/23 12:14:47;;;;;;;27.98;15.38;;;7.40;99.90;;;;;;5132722;28;20401;-63
2022/12/23 12:17:19;;;;;;;26.17;14.63;;;7.50;99.90;;;;;;5114335;28;20051;-64
2022/12/23 12:20:13;;;;;;;30.20;16.20;;;7.50;99.90;;;;;;5133260;28;20043;-63
2022/12/23 12:23:11;;;;;;;32.13;15.05;;;7.30;99.90;;;;;;5097564;28;20046;-63
2022/12/23 12:25:43;;;;;;;25.98;13.85;;;7.30;99.90;;;;;;5049555;28;20045;-63
2022/12/23 12:28:17;;;;;;;28.05;14.02;;;7.50;99.90;;;;;;5049582;28;20045;-63
2022/12/23 12:30:50;;;;;;;26.63;13.45;;;7.50;99.90;;;;;;5049568;28;20111;-63
2022/12/23 12:33:22;;;;;;;28.85;15.05;;;7.40;99.90;;;;;;5049264;28;20041;-63
2022/12/23 12:36:00;;;;;;;26.85;14.70;;;7.60;99.90;;;;;;5049447;28;20077;-63
2022/12/23 12:38:28;;;;;;;30.05;14.85;;;7.50;99.90;;;;;;5049469;28;20045;-63
2022/12/23 12:40:58;;;;;;;25.92;13.60;;;7.50;99.90;;;;;;5049277;28;20041;-63
2022/12/23 12:43:29;;;;;;;;;;;7.50;99.90;;;;;;5049832;28;20080;-63
2022/12/23 12:46:31;;;;;;;32.80;13.55;;;7.70;99.90;;;;;;5032249;28;19964;-63
2022/12/23 12:49:10;;;;;;;24.25;12.20;;;7.60;99.90;;;;;;5049332;28;20434;-63
2022/12/23 12:51:45;;;;;;;26.50;12.55;;;7.60;99.90;;;;;;5049383;28;20040;-63
2022/12/23 12:54:21;;;;;;;26.70;14.25;;;7.50;99.90;;;;;;5049171;28;20052;-63
2022/12/23 12:56:52;;;;;;;22.75;13.43;;;7.70;99.90;;;;;;5049366;28;20041;-63
2022/12/23 12:59:25;;;;;;;24.95;14.00;;;7.50;99.90;;;;;;5049248;28;20045;-63
2022/12/23 13:02:13;;;;;;;27.52;15.00;;;7.60;99.90;;;;;;5089980;27;20522;-63
2022/12/23 13:05:16;;;;;;;23.70;13.95;;;7.60;99.90;;;;;;5136749;27;20047;-63
2022/12/23 13:07:51;;;;;;;24.85;13.23;;;7.60;99.90;;;;;;5136368;27;20039;-63
2022/12/23 13:10:39;;;;;;;25.95;14.00;;;7.60;99.90;;;;;;5136139;27;20046;-63
2022/12/23 13:13:17;;;;;;;28.60;14.15;;;7.70;99.90;;;;;;5135942;27;20039;-64
2022/12/23 13:16:14;;;;;;;27.48;14.63;;;7.70;99.90;;;;;;5135868;27;20043;-63
2022/12/23 13:19:09;;;;;;;27.13;14.65;;;7.60;99.90;;;;;;5136050;27;20100;-63
2022/12/23 13:22:04;;;;;;;28.98;14.85;;;7.60;99.90;;;;;;5052383;28;20124;-63
2022/12/23 13:25:10;;;;;;;30.00;14.63;;;7.70;99.90;;;;;;5052677;28;20407;-63
2022/12/23 13:27:53;;;;;;;34.80;16.67;;;7.60;99.90;;;;;;5052419;28;20082;-63